Brooklyn, New York
Current Conditions -  °F | °C
As of 11:51 AM on Friday 28 Nov 2014 (Local Time) from KJFK Reporting Station
Scattered Clouds Scattered Clouds  
Wind Chill: 31°   Ceiling: Unl
Heat Index: 40°   Visibility: 10mi
Dew Point: 19°   Wind: 18mph
Humidity: 43%   Direction: 310°NW
Pressure: 30.16"   Gusts: 25mph
Location:  40.64°N, 73.96°W
Report Text: KJFK 281651Z 31016G22KT 10SM SCT055 04/M07 A3016 RMK AO2 SLP213 T00441072
Loading
Personal Weather Stations






























Interactive Weather Map New forecast layout! Learn more

10-Day Weather Forecast

Advertisements
Track Severe Weather on mobile